createdAt,value
2022-09-02T00:01:22.595Z,19.37
2022-09-02T00:03:49.553Z,19.13
2022-09-02T00:06:17.401Z,18.74
2022-09-02T00:08:53.111Z,18.53
2022-09-02T00:11:23.747Z,18.44
2022-09-02T00:13:51.754Z,18.17
2022-09-02T00:16:18.876Z,18.23
2022-09-02T00:18:48.370Z,18.43
2022-09-02T00:21:16.129Z,18.40
2022-09-02T00:23:44.356Z,18.38
2022-09-02T00:26:12.510Z,18.20
2022-09-02T00:28:40.081Z,18.11
2022-09-02T00:31:14.242Z,18.09
2022-09-02T00:33:41.033Z,18.11
2022-09-02T00:36:07.996Z,18.01
2022-09-02T00:38:35.837Z,18.34
2022-09-02T00:41:05.949Z,18.50
2022-09-02T00:43:49.152Z,18.71
2022-09-02T00:46:18.510Z,18.83
2022-09-02T00:48:53.571Z,18.90
2022-09-02T00:51:20.511Z,18.97
2022-09-02T00:53:49.916Z,18.51
2022-09-02T00:56:25.468Z,18.77
2022-09-02T00:58:52.769Z,18.33
2022-09-02T01:01:22.633Z,18.29
2022-09-02T01:03:50.549Z,18.27
2022-09-02T01:06:25.182Z,18.08
2022-09-02T01:08:59.525Z,17.87
2022-09-02T01:11:39.091Z,17.81
2022-09-02T01:14:07.428Z,18.00
2022-09-02T01:16:42.157Z,18.07
2022-09-02T01:19:20.244Z,17.98
2022-09-02T01:21:57.791Z,17.93
2022-09-02T01:24:29.883Z,18.18
2022-09-02T01:26:59.422Z,18.36
2022-09-02T01:29:27.644Z,18.34
2022-09-02T01:31:54.342Z,18.34
2022-09-02T01:34:21.099Z,18.13
2022-09-02T01:36:47.893Z,17.94
2022-09-02T01:39:14.661Z,18.12
2022-09-02T01:41:41.361Z,18.28
2022-09-02T01:44:08.534Z,18.43
2022-09-02T01:46:35.378Z,18.47
2022-09-02T01:49:02.193Z,18.52
2022-09-02T01:51:28.891Z,18.40
2022-09-02T01:53:55.534Z,18.58
2022-09-02T01:56:22.118Z,18.59
2022-09-02T01:58:49.114Z,18.69
2022-09-02T02:01:15.823Z,18.62
2022-09-02T02:03:42.861Z,18.49
2022-09-02T02:06:12.660Z,18.26
2022-09-02T02:08:40.107Z,18.00
2022-09-02T02:11:06.854Z,17.71
2022-09-02T02:13:33.985Z,17.81
2022-09-02T02:16:00.910Z,17.70
2022-09-02T02:18:27.559Z,17.46
2022-09-02T02:20:54.148Z,17.39
2022-09-02T02:23:20.926Z,17.82
2022-09-02T02:25:47.542Z,17.43
2022-09-02T02:28:14.683Z,17.03
2022-09-02T02:30:41.354Z,17.31
2022-09-02T02:33:07.946Z,17.31
2022-09-02T02:35:34.899Z,17.08
2022-09-02T02:38:03.768Z,17.22
2022-09-02T02:40:31.420Z,17.16
2022-09-02T02:42:58.135Z,17.09
2022-09-02T02:45:25.667Z,17.32
2022-09-02T02:47:53.397Z,17.25
2022-09-02T02:50:21.883Z,17.49
2022-09-02T02:52:49.068Z,17.69
2022-09-02T02:55:16.729Z,17.84
2022-09-02T02:57:45.242Z,17.92
2022-09-02T03:00:21.879Z,18.02
2022-09-02T03:02:49.858Z,18.00
2022-09-02T03:05:16.755Z,18.03
2022-09-02T03:07:43.372Z,18.05
2022-09-02T03:10:11.624Z,18.10
2022-09-02T03:12:39.737Z,18.07
2022-09-02T03:15:08.842Z,18.14
2022-09-02T03:17:35.617Z,18.16
2022-09-02T03:20:02.463Z,18.16
2022-09-02T03:22:29.529Z,18.22
2022-09-02T03:24:56.428Z,18.16
2022-09-02T03:27:23.600Z,18.22
2022-09-02T03:29:50.203Z,18.25
2022-09-02T03:32:16.802Z,18.24
2022-09-02T03:34:43.635Z,18.25
2022-09-02T03:37:10.509Z,18.23
2022-09-02T03:39:39.122Z,18.23
2022-09-02T03:42:06.017Z,18.25
2022-09-02T03:44:34.354Z,18.20
2022-09-02T03:47:01.122Z,18.18
2022-09-02T03:49:28.330Z,18.15
2022-09-02T03:51:54.969Z,18.14
2022-09-02T03:54:21.712Z,18.00
2022-09-02T03:56:48.756Z,17.42
2022-09-02T03:59:15.473Z,17.16
2022-09-02T04:01:42.173Z,17.44
2022-09-02T04:04:09.392Z,17.29
2022-09-02T04:06:36.465Z,17.21
2022-09-02T04:09:03.838Z,16.99
2022-09-02T04:11:30.960Z,17.01
2022-09-02T04:13:58.760Z,17.15
2022-09-02T04:16:29.056Z,17.18
2022-09-02T04:18:57.701Z,16.91
2022-09-02T04:21:25.716Z,16.72
2022-09-02T04:23:52.650Z,16.61
2022-09-02T04:26:20.497Z,16.71
2022-09-02T04:28:48.455Z,17.05
2022-09-02T04:31:18.679Z,17.25
2022-09-02T04:33:45.745Z,17.22
2022-09-02T04:36:15.944Z,16.91
2022-09-02T04:38:42.558Z,16.92
2022-09-02T04:41:16.105Z,16.88
2022-09-02T04:43:42.934Z,16.71
2022-09-02T04:46:12.499Z,16.95
2022-09-02T04:48:39.876Z,16.96
2022-09-02T04:51:09.889Z,16.60
2022-09-02T04:53:36.614Z,17.04
2022-09-02T04:56:05.151Z,16.90
2022-09-02T04:58:31.740Z,16.81
2022-09-02T05:00:58.323Z,16.85
2022-09-02T05:03:25.161Z,16.60
2022-09-02T05:06:02.253Z,16.99
2022-09-02T05:08:28.882Z,17.00
2022-09-02T05:10:55.565Z,17.14
2022-09-02T05:13:23.860Z,16.59
2022-09-02T05:15:50.686Z,16.70
2022-09-02T05:18:17.278Z,16.71
2022-09-02T05:20:43.862Z,16.98
2022-09-02T05:23:12.097Z,17.22
2022-09-02T05:25:40.080Z,17.37
2022-09-02T05:28:10.976Z,17.34
2022-09-02T05:30:40.064Z,17.44
2022-09-02T05:33:07.066Z,17.33
2022-09-02T05:35:41.076Z,17.06
2022-09-02T05:38:12.928Z,17.11
2022-09-02T05:40:39.771Z,17.23
2022-09-02T05:43:07.037Z,17.51
2022-09-02T05:45:34.445Z,17.21
2022-09-02T05:48:20.983Z,17.14
2022-09-02T05:50:50.149Z,17.29
2022-09-02T05:53:16.891Z,17.39
2022-09-02T05:55:43.815Z,17.61
2022-09-02T05:58:10.419Z,17.78
2022-09-02T06:00:38.280Z,17.92
2022-09-02T06:03:04.961Z,18.03
2022-09-02T06:05:32.047Z,18.13
2022-09-02T06:07:58.625Z,18.20
2022-09-02T06:10:25.221Z,18.27
2022-09-02T06:12:51.847Z,18.33
2022-09-02T06:15:18.567Z,18.34
2022-09-02T06:17:45.178Z,18.40
2022-09-02T06:20:12.009Z,18.41
2022-09-02T06:22:38.697Z,18.45
2022-09-02T06:25:05.888Z,18.48
2022-09-02T06:27:33.615Z,18.55
2022-09-02T06:30:00.175Z,18.54
2022-09-02T06:32:26.826Z,18.53
2022-09-02T06:34:53.379Z,18.55
2022-09-02T06:37:19.940Z,18.54
2022-09-02T06:39:48.354Z,18.53
2022-09-02T06:42:15.120Z,18.62
2022-09-02T06:44:42.184Z,18.67
2022-09-02T06:47:08.777Z,18.77
2022-09-02T06:49:35.375Z,18.74
2022-09-02T06:52:02.147Z,18.81
2022-09-02T06:54:28.758Z,18.86
2022-09-02T06:56:55.370Z,18.88
2022-09-02T06:59:22.667Z,18.93
2022-09-02T07:01:49.771Z,18.94
2022-09-02T07:04:36.352Z,18.97
2022-09-02T07:07:05.435Z,18.94
2022-09-02T07:09:32.017Z,18.94
2022-09-02T07:12:05.303Z,18.96
2022-09-02T07:14:37.530Z,18.96
2022-09-02T07:17:04.357Z,19.00
2022-09-02T07:19:31.294Z,19.02
2022-09-02T07:21:57.890Z,19.07
2022-09-02T07:24:24.525Z,19.13
2022-09-02T07:26:55.316Z,19.15
2022-09-02T07:29:22.905Z,19.17
2022-09-02T07:31:50.070Z,19.21
2022-09-02T07:34:17.939Z,19.20
2022-09-02T07:36:45.931Z,19.25
2022-09-02T07:39:14.064Z,19.25
2022-09-02T07:41:42.471Z,19.25
2022-09-02T07:44:09.113Z,19.28
2022-09-02T07:46:36.729Z,19.37
2022-09-02T07:49:09.234Z,19.33
2022-09-02T07:51:38.402Z,19.29
2022-09-02T07:54:06.216Z,19.32
2022-09-02T07:56:33.202Z,19.35
2022-09-02T07:58:59.944Z,19.38
2022-09-02T08:01:27.294Z,19.40
2022-09-02T08:03:54.084Z,19.46
2022-09-02T08:06:33.644Z,19.47
2022-09-02T08:09:05.015Z,19.52
2022-09-02T08:11:32.857Z,19.49
2022-09-02T08:14:00.739Z,19.57
2022-09-02T08:16:28.269Z,19.64
2022-09-02T08:18:55.450Z,19.66
2022-09-02T08:21:22.007Z,19.75
2022-09-02T08:23:50.613Z,19.83
2022-09-02T08:26:18.555Z,19.75
2022-09-02T08:28:45.433Z,19.86
2022-09-02T08:31:12.090Z,19.77
2022-09-02T08:33:38.751Z,19.92
2022-09-02T08:36:08.523Z,20.02
2022-09-02T08:38:36.784Z,20.08
2022-09-02T08:41:13.855Z,20.06
2022-09-02T08:43:43.357Z,20.16
2022-09-02T08:46:15.269Z,20.24
2022-09-02T08:48:49.472Z,20.29
2022-09-02T08:51:24.089Z,20.36
2022-09-02T08:54:00.536Z,20.32
2022-09-02T08:56:28.334Z,20.24
2022-09-02T08:58:57.987Z,20.14
2022-09-02T09:01:39.215Z,20.30
2022-09-02T09:04:24.164Z,20.30
2022-09-02T09:07:06.020Z,20.25
2022-09-02T09:10:00.021Z,20.32
2022-09-02T09:12:37.968Z,20.28
2022-09-02T09:15:35.909Z,20.29
2022-09-02T09:18:07.660Z,20.22
2022-09-02T09:20:44.828Z,20.22
2022-09-02T09:23:28.420Z,20.29
2022-09-02T09:26:05.964Z,20.26
2022-09-02T09:28:41.051Z,20.28
2022-09-02T09:31:29.741Z,20.35
2022-09-02T09:34:07.993Z,20.32
2022-09-02T09:36:40.437Z,19.99
2022-09-02T09:39:24.556Z,19.98
2022-09-02T09:41:54.063Z,19.87
2022-09-02T09:44:45.125Z,20.27
2022-09-02T09:47:19.727Z,20.43
2022-09-02T09:49:51.420Z,20.46
2022-09-02T09:52:25.244Z,20.46
2022-09-02T09:55:12.900Z,20.58
2022-09-02T09:57:41.924Z,20.53
2022-09-02T10:00:25.756Z,20.56
2022-09-02T10:02:56.647Z,20.61
2022-09-02T10:05:25.920Z,20.65
2022-09-02T10:08:03.945Z,20.61
2022-09-02T10:10:37.094Z,20.63
2022-09-02T10:13:24.897Z,20.69
2022-09-02T10:16:19.147Z,20.74
2022-09-02T10:18:56.649Z,20.78
2022-09-02T10:21:50.088Z,20.73
2022-09-02T10:24:39.884Z,20.77
2022-09-02T10:27:15.202Z,20.78
2022-09-02T10:29:49.128Z,20.76
2022-09-02T10:32:27.306Z,20.74
2022-09-02T10:35:17.616Z,20.75
2022-09-02T10:37:44.239Z,20.75
2022-09-02T10:40:20.145Z,20.80
2022-09-02T10:43:06.419Z,20.87
2022-09-02T10:45:45.290Z,20.95
2022-09-02T10:48:35.435Z,20.97
2022-09-02T10:51:10.850Z,21.07
2022-09-02T10:53:59.796Z,21.07
2022-09-02T10:56:33.119Z,21.04
2022-09-02T10:59:08.080Z,20.97
2022-09-02T11:01:55.160Z,20.98
2022-09-02T11:04:43.259Z,20.96
2022-09-02T11:07:17.183Z,20.98
2022-09-02T11:09:52.993Z,21.04
2022-09-02T11:12:41.931Z,21.09
2022-09-02T11:15:44.482Z,21.16
2022-09-02T11:18:31.683Z,21.09
2022-09-02T11:21:18.665Z,21.10
2022-09-02T11:23:52.427Z,21.17
2022-09-02T11:26:30.336Z,21.21
2022-09-02T11:29:15.167Z,21.29
2022-09-02T11:31:50.837Z,21.30
2022-09-02T11:34:26.170Z,21.35
2022-09-02T11:36:53.054Z,21.36
2022-09-02T11:39:56.309Z,21.39
2022-09-02T11:42:38.254Z,21.44
2022-09-02T11:45:47.688Z,21.43
2022-09-02T11:48:24.128Z,21.49
2022-09-02T11:51:10.690Z,21.51
2022-09-02T11:53:42.247Z,21.52
2022-09-02T11:56:16.787Z,21.52
2022-09-02T11:58:45.938Z,21.58
2022-09-02T12:01:15.334Z,21.64
2022-09-02T12:04:58.143Z,21.67
2022-09-02T12:07:26.452Z,21.88
2022-09-02T12:09:57.251Z,22.06
2022-09-02T12:12:39.010Z,22.17
2022-09-02T12:15:06.088Z,22.06
2022-09-02T12:17:39.572Z,22.01
2022-09-02T12:20:09.759Z,21.99
2022-09-02T12:22:40.661Z,22.02
2022-09-02T12:25:26.763Z,22.10
2022-09-02T12:28:19.081Z,22.11
2022-09-02T12:31:03.138Z,22.44
2022-09-02T12:33:33.567Z,22.65
2022-09-02T12:36:01.123Z,22.97
2022-09-02T12:38:33.006Z,23.10
2022-09-02T12:41:13.446Z,23.02
2022-09-02T12:43:44.690Z,22.94
2022-09-02T12:46:42.340Z,22.84
2022-09-02T12:49:33.728Z,22.73
2022-09-02T12:52:08.547Z,22.65
2022-09-02T12:54:39.776Z,22.62
2022-09-02T12:57:08.071Z,22.59
2022-09-02T12:59:38.214Z,22.62
2022-09-02T13:02:32.072Z,22.69
2022-09-02T13:05:24.979Z,22.77
2022-09-02T13:08:06.523Z,22.93
2022-09-02T13:10:41.514Z,23.03
2022-09-02T13:13:26.779Z,23.47
2022-09-02T13:16:21.896Z,23.48
2022-09-02T13:19:07.330Z,23.38
2022-09-02T13:22:01.635Z,23.25
2022-09-02T13:24:47.047Z,23.45
2022-09-02T13:27:35.628Z,23.43
2022-09-02T13:30:14.311Z,23.28
2022-09-02T13:32:41.819Z,23.22
2022-09-02T13:35:24.070Z,23.16
2022-09-02T13:38:02.778Z,23.17
2022-09-02T13:40:35.747Z,23.22
2022-09-02T13:43:16.200Z,23.13
2022-09-02T13:45:44.030Z,23.11
2022-09-02T13:48:11.799Z,23.06
2022-09-02T13:50:43.667Z,23.19
2022-09-02T13:53:54.099Z,23.39
2022-09-02T13:56:14.430Z,23.40
2022-09-02T13:58:52.923Z,23.51
2022-09-02T14:01:27.734Z,23.47
2022-09-02T14:03:58.080Z,23.60
2022-09-02T14:06:29.896Z,23.84
2022-09-02T14:09:02.644Z,23.84
2022-09-02T14:11:42.690Z,23.90
2022-09-02T14:14:14.362Z,23.87
2022-09-02T14:16:40.952Z,23.73
2022-09-02T14:19:25.834Z,23.61
2022-09-02T14:21:58.777Z,23.49
2022-09-02T14:24:29.008Z,23.45
2022-09-02T14:26:57.904Z,23.34
2022-09-02T14:29:26.574Z,23.27
2022-09-02T14:32:10.973Z,23.23
2022-09-02T14:34:40.448Z,23.17
2022-09-02T14:37:28.799Z,23.19
2022-09-02T14:40:11.685Z,23.11
2022-09-02T14:42:53.742Z,23.13
2022-09-02T14:45:34.115Z,23.07
2022-09-02T14:48:10.823Z,23.02
2022-09-02T14:50:38.396Z,23.01
2022-09-02T14:53:09.237Z,22.95
2022-09-02T14:55:44.702Z,22.91
2022-09-02T14:58:11.635Z,22.88
2022-09-02T15:00:39.291Z,22.90
2022-09-02T15:03:07.135Z,22.97
2022-09-02T15:05:34.102Z,22.96
2022-09-02T15:08:00.677Z,23.01
2022-09-02T15:10:27.986Z,23.03
2022-09-02T15:12:57.606Z,22.98
2022-09-02T15:15:25.154Z,22.99
2022-09-02T15:17:51.757Z,22.96
2022-09-02T15:20:18.489Z,22.98
2022-09-02T15:22:45.559Z,23.00
2022-09-02T15:25:12.115Z,23.02
2022-09-02T15:27:39.040Z,23.00
2022-09-02T15:30:09.353Z,23.05
2022-09-02T15:32:37.551Z,23.13
2022-09-02T15:35:07.063Z,23.14
2022-09-02T15:37:37.436Z,23.11
2022-09-02T15:40:07.052Z,23.11
2022-09-02T15:42:35.568Z,23.07
2022-09-02T15:45:04.182Z,23.01
2022-09-02T15:47:31.280Z,23.04
2022-09-02T15:49:58.292Z,23.00
2022-09-02T15:52:25.133Z,23.03
2022-09-02T15:54:54.363Z,23.04
2022-09-02T15:57:21.887Z,23.07
2022-09-02T15:59:48.847Z,22.99
2022-09-02T16:02:16.120Z,23.03
2022-09-02T16:04:42.777Z,23.04
2022-09-02T16:07:09.716Z,23.06
2022-09-02T16:09:49.768Z,23.02
2022-09-02T16:12:16.453Z,22.95
2022-09-02T16:14:43.426Z,22.94
2022-09-02T16:17:10.556Z,22.86
2022-09-02T16:19:40.203Z,22.90
2022-09-02T16:22:07.082Z,22.89
2022-09-02T16:24:34.104Z,22.80
2022-09-02T16:27:00.836Z,22.82
2022-09-02T16:29:28.428Z,22.83
2022-09-02T16:32:23.551Z,22.84
2022-09-02T16:34:42.597Z,22.81
2022-09-02T16:37:09.177Z,22.75
2022-09-02T16:39:36.410Z,22.81
2022-09-02T16:42:04.626Z,22.80
2022-09-02T16:44:33.985Z,22.76
2022-09-02T16:47:00.899Z,22.74
2022-09-02T16:49:27.738Z,22.73
2022-09-02T16:51:58.476Z,22.71
2022-09-02T16:54:31.533Z,22.68
2022-09-02T16:57:00.937Z,22.67
2022-09-02T16:59:27.907Z,22.64
2022-09-02T17:01:54.578Z,22.65
2022-09-02T17:04:21.266Z,22.64
2022-09-02T17:06:48.866Z,22.62
2022-09-02T17:09:16.675Z,22.61
2022-09-02T17:11:45.598Z,22.59
2022-09-02T17:14:19.657Z,22.60
2022-09-02T17:16:49.473Z,22.59
2022-09-02T17:19:21.900Z,22.56
2022-09-02T17:21:54.084Z,22.56
2022-09-02T17:24:23.483Z,22.54
2022-09-02T17:26:56.272Z,22.57
2022-09-02T17:29:48.684Z,22.54
2022-09-02T17:32:11.982Z,22.58
2022-09-02T17:34:38.648Z,22.57
2022-09-02T17:37:05.733Z,22.51
2022-09-02T17:39:34.422Z,22.47
2022-09-02T17:42:03.079Z,22.54
2022-09-02T17:44:39.690Z,22.59
2022-09-02T17:47:08.004Z,22.62
2022-09-02T17:49:36.799Z,22.61
2022-09-02T17:52:07.014Z,22.60
2022-09-02T17:54:34.890Z,22.51
2022-09-02T17:57:14.854Z,22.53
2022-09-02T18:00:05.875Z,22.51
2022-09-02T18:02:35.626Z,22.53
2022-09-02T18:05:29.302Z,22.51
2022-09-02T18:08:04.002Z,22.43
2022-09-02T18:10:38.904Z,22.42
2022-09-02T18:13:14.131Z,22.46
2022-09-02T18:15:49.034Z,22.37
2022-09-02T18:18:17.988Z,22.38
2022-09-02T18:20:53.655Z,22.36
2022-09-02T18:23:49.291Z,22.42
2022-09-02T18:26:42.358Z,22.32
2022-09-02T18:29:24.583Z,22.31
2022-09-02T18:32:17.430Z,22.38
2022-09-02T18:35:11.637Z,22.29
2022-09-02T18:38:07.071Z,22.29
2022-09-02T18:41:22.535Z,22.32
2022-09-02T18:44:13.731Z,21.95
2022-09-02T18:47:05.485Z,21.66
2022-09-02T18:49:36.565Z,21.75
2022-09-02T18:52:08.498Z,21.69
2022-09-02T18:54:45.609Z,21.63
2022-09-02T18:57:13.329Z,21.50
2022-09-02T19:00:01.909Z,21.57
2022-09-02T19:02:46.298Z,21.64
2022-09-02T19:05:20.722Z,21.66
2022-09-02T19:08:21.055Z,21.65
2022-09-02T19:10:48.137Z,21.34
2022-09-02T19:13:15.587Z,21.28
2022-09-02T19:15:42.855Z,21.44
2022-09-02T19:18:10.858Z,21.57
2022-09-02T19:20:39.036Z,21.55
2022-09-02T19:23:08.470Z,21.58
2022-09-02T19:25:36.674Z,21.67
2022-09-02T19:28:06.598Z,21.48
2022-09-02T19:30:37.277Z,21.41
2022-09-02T19:33:07.728Z,21.30
2022-09-02T19:35:36.664Z,21.41
2022-09-02T19:38:04.043Z,21.42
2022-09-02T19:40:33.995Z,21.61
2022-09-02T19:43:03.958Z,21.17
2022-09-02T19:45:37.019Z,20.97
2022-09-02T19:48:08.115Z,20.85
2022-09-02T19:50:38.025Z,21.13
2022-09-02T19:53:04.791Z,21.21
2022-09-02T19:55:33.950Z,21.34
2022-09-02T19:58:03.038Z,21.38
2022-09-02T20:00:31.389Z,21.41
2022-09-02T20:02:58.262Z,21.48
2022-09-02T20:05:26.018Z,21.36
2022-09-02T20:08:03.343Z,21.37
2022-09-02T20:10:30.729Z,21.39
2022-09-02T20:12:59.223Z,21.38
2022-09-02T20:15:26.249Z,21.33
2022-09-02T20:17:53.338Z,21.08
2022-09-02T20:20:22.848Z,21.00
2022-09-02T20:22:55.308Z,20.86
2022-09-02T20:25:31.801Z,20.73
2022-09-02T20:28:05.433Z,20.97
2022-09-02T20:30:36.291Z,20.91
2022-09-02T20:33:19.773Z,21.01
2022-09-02T20:36:09.493Z,20.96
2022-09-02T20:38:57.864Z,21.14
2022-09-02T20:41:56.822Z,21.19
2022-09-02T20:45:14.233Z,21.17
2022-09-02T20:47:52.103Z,21.24
2022-09-02T20:51:00.145Z,21.24
2022-09-02T20:54:01.156Z,21.24
2022-09-02T20:56:53.426Z,20.92
2022-09-02T20:59:20.546Z,20.98
2022-09-02T21:01:48.479Z,20.89
2022-09-02T21:04:26.545Z,20.83
2022-09-02T21:07:02.378Z,20.69
2022-09-02T21:09:56.738Z,20.80
2022-09-02T21:12:37.362Z,20.89
2022-09-02T21:15:13.084Z,21.05
2022-09-02T21:17:50.552Z,21.15
2022-09-02T21:20:26.021Z,21.05
2022-09-02T21:22:58.489Z,20.77
2022-09-02T21:25:36.170Z,20.71
2022-09-02T21:28:37.992Z,20.67
2022-09-02T21:31:28.855Z,20.88
2022-09-02T21:34:01.051Z,20.95
2022-09-02T21:36:32.561Z,21.07
2022-09-02T21:39:06.612Z,21.09
2022-09-02T21:41:41.153Z,21.09
2022-09-02T21:44:28.202Z,21.15
2022-09-02T21:47:15.428Z,21.13
2022-09-02T21:49:51.021Z,20.92
2022-09-02T21:52:48.944Z,20.70
2022-09-02T21:55:31.397Z,20.67
2022-09-02T21:58:31.680Z,20.71
2022-09-02T22:01:07.881Z,20.80
2022-09-02T22:03:49.862Z,20.62
2022-09-02T22:06:36.399Z,20.76
2022-09-02T22:09:09.234Z,20.66
2022-09-02T22:12:16.817Z,20.69
2022-09-02T22:14:59.207Z,20.76
2022-09-02T22:17:35.341Z,20.59
2022-09-02T22:20:05.569Z,20.66
2022-09-02T22:22:38.948Z,20.44
2022-09-02T22:25:10.734Z,20.14
2022-09-02T22:27:40.653Z,20.06
2022-09-02T22:30:14.588Z,20.27
2022-09-02T22:32:57.769Z,20.44
2022-09-02T22:35:36.307Z,20.57
2022-09-02T22:38:29.072Z,20.63
2022-09-02T22:41:14.169Z,20.71
2022-09-02T22:43:45.665Z,20.36
2022-09-02T22:46:43.598Z,20.11
2022-09-02T22:49:34.033Z,19.95
2022-09-02T22:52:43.970Z,20.22
2022-09-02T22:55:15.992Z,20.30
2022-09-02T22:57:57.664Z,20.32
2022-09-02T23:00:25.924Z,20.48
2022-09-02T23:03:20.903Z,20.40
2022-09-02T23:06:03.215Z,20.46
2022-09-02T23:08:31.753Z,20.56
2022-09-02T23:11:06.823Z,20.46
2022-09-02T23:14:07.189Z,20.55
2022-09-02T23:16:48.156Z,20.55
2022-09-02T23:19:37.311Z,20.60
2022-09-02T23:22:16.095Z,20.68
2022-09-02T23:24:49.295Z,20.31
2022-09-02T23:27:33.357Z,20.25
2022-09-02T23:30:04.366Z,20.13
2022-09-02T23:32:52.116Z,20.41
2022-09-02T23:35:23.842Z,20.50
2022-09-02T23:38:17.028Z,20.52
2022-09-02T23:40:46.579Z,20.45
2022-09-02T23:43:18.399Z,20.56
2022-09-02T23:45:46.738Z,20.65
2022-09-02T23:48:28.842Z,20.64
2022-09-02T23:51:17.535Z,20.67
2022-09-02T23:54:24.822Z,20.73
2022-09-02T23:57:12.151Z,20.69
